createdAt,value
2018-12-18T12:18:17.090Z,114.15
2018-12-18T12:20:45.462Z,109.67
2018-12-18T12:23:13.954Z,109.55
2018-12-18T12:25:43.075Z,112.57
2018-12-18T12:28:11.469Z,109.30
2018-12-18T12:30:40.372Z,111.47
2018-12-18T12:33:08.807Z,109.78
2018-12-18T12:35:37.477Z,111.05
2018-12-18T12:38:05.951Z,112.30
2018-12-18T12:40:34.296Z,112.03
2018-12-18T12:43:02.966Z,105.70
2018-12-18T12:45:31.738Z,110.22
2018-12-18T12:48:02.774Z,110.00
2018-12-18T12:50:31.645Z,109.12
2018-12-18T12:53:06.931Z,113.32
2018-12-18T12:55:35.727Z,111.00
2018-12-18T12:58:04.515Z,110.70
2018-12-18T13:00:33.240Z,109.57
2018-12-18T13:03:02.260Z,109.87
2018-12-18T13:05:31.134Z,128.70
2018-12-18T13:07:59.836Z,117.85
2018-12-18T13:10:28.460Z,116.20
2018-12-18T13:12:57.571Z,115.25
2018-12-18T13:15:26.230Z,113.32
2018-12-18T13:17:54.924Z,112.20
2018-12-18T13:20:23.858Z,122.67
2018-12-18T13:22:52.552Z,116.93
2018-12-18T13:25:21.569Z,119.35
2018-12-18T13:27:50.001Z,113.35
2018-12-18T13:30:19.047Z,115.85
2018-12-18T13:32:48.113Z,114.47
2018-12-18T13:35:16.506Z,114.37
2018-12-18T13:37:45.250Z,113.52
2018-12-18T13:40:13.983Z,113.70
2018-12-18T13:42:42.331Z,114.25
2018-12-18T13:45:11.064Z,116.95
2018-12-18T13:47:39.936Z,115.32
2018-12-18T13:50:09.133Z,112.88
2018-12-18T13:52:37.946Z,117.10
2018-12-18T13:55:06.389Z,113.12
2018-12-18T13:57:35.052Z,114.57
2018-12-18T14:00:03.507Z,115.82
2018-12-18T14:02:32.277Z,115.25
2018-12-18T14:05:01.293Z,110.72
2018-12-18T14:07:30.045Z,115.67
2018-12-18T14:09:58.816Z,112.45
2018-12-18T14:12:27.239Z,113.83
2018-12-18T14:14:56.470Z,119.55
2018-12-18T14:17:25.389Z,113.60
2018-12-18T14:19:54.034Z,116.22
2018-12-18T14:22:22.649Z,118.40
2018-12-18T14:24:52.095Z,116.10
2018-12-18T14:27:21.302Z,116.60
2018-12-18T14:29:49.744Z,114.57
2018-12-18T14:32:18.416Z,114.72
2018-12-18T14:34:47.093Z,113.03
2018-12-18T14:37:15.813Z,122.75
2018-12-18T14:39:44.524Z,112.90
2018-12-18T14:42:12.984Z,113.88
2018-12-18T14:44:42.072Z,124.02
2018-12-18T14:47:10.741Z,117.87
2018-12-18T14:49:39.143Z,110.88
2018-12-18T14:52:07.544Z,112.80
2018-12-18T14:54:35.957Z,112.50
2018-12-18T14:57:04.598Z,116.28
2018-12-18T14:59:33.257Z,118.82
2018-12-18T15:02:01.739Z,113.83
2018-12-18T15:04:30.166Z,115.42
2018-12-18T15:07:02.770Z,114.12
2018-12-18T15:09:29.663Z,121.25
2018-12-18T15:11:58.636Z,121.60
2018-12-18T15:14:27.270Z,116.40
2018-12-18T15:16:55.848Z,116.50
2018-12-18T15:19:24.590Z,112.57
2018-12-18T15:21:53.299Z,114.00
2018-12-18T15:24:22.753Z,113.15
2018-12-18T15:26:51.443Z,112.95
2018-12-18T15:29:19.889Z,113.28
2018-12-18T15:31:48.655Z,112.83
2018-12-18T15:34:17.823Z,113.65
2018-12-18T15:36:46.577Z,117.05
2018-12-18T15:39:15.341Z,113.32
2018-12-18T15:41:43.928Z,112.32
2018-12-18T15:44:12.546Z,112.92
2018-12-18T15:46:41.484Z,113.10
2018-12-18T15:49:10.232Z,112.60
2018-12-18T15:51:38.846Z,112.10
2018-12-18T15:54:07.872Z,111.88
2018-12-18T15:56:36.300Z,112.08
2018-12-18T15:59:05.070Z,114.45
2018-12-18T16:01:33.431Z,119.50
2018-12-18T16:04:02.322Z,121.22
2018-12-18T16:06:30.766Z,121.35
2018-12-18T16:09:00.612Z,122.00
2018-12-18T16:11:30.385Z,120.57
2018-12-18T16:13:59.116Z,114.15
2018-12-18T16:19:06.999Z,115.12
2018-12-18T16:21:35.358Z,184.50
2018-12-18T16:24:03.992Z,116.30
2018-12-18T16:26:32.650Z,116.97
2018-12-18T16:29:01.879Z,113.68
2018-12-18T16:31:30.228Z,114.85
2018-12-18T16:33:58.630Z,114.65
2018-12-18T16:36:27.626Z,115.82
2018-12-18T16:38:56.331Z,115.97
2018-12-18T16:41:24.810Z,119.90
2018-12-18T16:43:53.491Z,114.30
2018-12-18T16:46:22.457Z,119.70
2018-12-18T16:48:52.175Z,117.50
2018-12-18T16:51:20.723Z,116.05
2018-12-18T16:53:49.093Z,115.25
2018-12-18T16:56:17.797Z,114.10
2018-12-18T16:58:46.160Z,114.45
2018-12-18T17:01:14.970Z,115.42
2018-12-18T17:03:43.696Z,119.28
2018-12-18T17:06:12.039Z,114.95
2018-12-18T17:08:41.350Z,119.42
2018-12-18T17:11:11.028Z,119.47
2018-12-18T17:13:40.459Z,122.67
2018-12-18T17:16:09.146Z,144.72
2018-12-18T17:18:38.368Z,147.40
2018-12-18T17:21:06.759Z,135.22
2018-12-18T17:23:35.239Z,136.95
2018-12-18T17:26:04.196Z,132.82
2018-12-18T17:28:32.981Z,138.05
2018-12-18T17:31:01.701Z,152.95
2018-12-18T17:33:30.414Z,146.70
2018-12-18T17:35:59.452Z,142.53
2018-12-18T17:38:28.231Z,163.65
2018-12-18T17:40:56.720Z,145.47
2018-12-18T17:43:25.633Z,150.30
2018-12-18T17:45:54.243Z,148.28
2018-12-18T17:48:22.753Z,152.75
2018-12-18T17:50:51.764Z,154.68
2018-12-18T17:53:21.464Z,147.78
2018-12-18T17:55:49.936Z,152.07
2018-12-18T17:58:18.588Z,148.25
2018-12-18T18:00:47.312Z,142.75
2018-12-18T18:03:15.732Z,137.88
2018-12-18T18:05:44.673Z,132.70
2018-12-18T18:08:13.305Z,137.35
2018-12-18T18:10:41.697Z,152.70
2018-12-18T18:13:10.475Z,135.30
2018-12-18T18:15:39.099Z,130.95
2018-12-18T18:18:07.773Z,134.52
2018-12-18T18:20:36.533Z,133.70
2018-12-18T18:23:05.188Z,131.32
2018-12-18T18:25:33.870Z,122.47
2018-12-18T18:28:02.286Z,139.07
2018-12-18T18:30:31.282Z,133.50
2018-12-18T18:32:59.782Z,131.22
2018-12-18T18:35:28.170Z,132.55
2018-12-18T18:37:57.257Z,114.00
2018-12-18T18:40:26.247Z,131.30
2018-12-18T18:42:55.264Z,162.70
2018-12-18T18:45:23.667Z,163.15
2018-12-18T18:47:52.746Z,162.05
2018-12-18T18:50:21.419Z,164.80
2018-12-18T18:52:50.566Z,147.93
2018-12-18T18:55:19.036Z,142.00
2018-12-18T18:57:48.180Z,146.90
2018-12-18T19:00:17.408Z,157.65
2018-12-18T19:02:45.771Z,150.32
2018-12-18T19:05:14.568Z,140.80
2018-12-18T19:07:43.286Z,129.42
2018-12-18T19:10:11.679Z,129.30
2018-12-18T19:12:40.361Z,130.37
2018-12-18T19:15:09.720Z,133.63
2018-12-18T19:17:38.692Z,134.60
2018-12-18T19:20:07.469Z,134.60
2018-12-18T19:22:35.874Z,138.88
2018-12-18T19:25:04.990Z,122.65
2018-12-18T19:27:33.421Z,120.17
2018-12-18T19:30:08.209Z,112.55
2018-12-18T19:32:37.737Z,112.37
2018-12-18T19:35:07.234Z,106.83
2018-12-18T19:37:35.629Z,113.90
2018-12-18T19:40:04.098Z,110.78
2018-12-18T19:42:33.317Z,112.37
2018-12-18T19:45:02.739Z,108.55
2018-12-18T19:47:31.183Z,109.17
2018-12-18T19:50:00.255Z,111.80
2018-12-18T19:52:29.629Z,108.55
2018-12-18T19:54:58.468Z,110.83
2018-12-18T19:57:26.876Z,113.50
2018-12-18T19:59:56.059Z,110.08
2018-12-18T20:02:25.002Z,108.80
2018-12-18T20:04:53.702Z,110.85
2018-12-18T20:07:22.579Z,111.55
2018-12-18T20:09:51.327Z,109.63
2018-12-18T20:12:20.642Z,107.55
2018-12-18T20:14:49.278Z,110.15
2018-12-18T20:17:17.987Z,112.70
2018-12-18T20:19:47.371Z,109.78
2018-12-18T20:22:16.077Z,105.15
2018-12-18T20:24:44.443Z,109.25
2018-12-18T20:27:12.828Z,113.10
2018-12-18T20:29:41.878Z,116.60
2018-12-18T20:32:10.620Z,114.10
2018-12-18T20:34:39.317Z,104.97
2018-12-18T20:37:08.503Z,107.05
2018-12-18T20:39:36.954Z,110.15
2018-12-18T20:42:05.835Z,112.08
2018-12-18T20:44:34.325Z,115.40
2018-12-18T20:47:03.068Z,118.13
2018-12-18T20:49:31.738Z,116.40
2018-12-18T20:52:00.764Z,112.68
2018-12-18T20:54:29.446Z,121.77
2018-12-18T20:56:58.457Z,108.12
2018-12-18T20:59:28.261Z,113.97
2018-12-18T21:01:57.098Z,112.28
2018-12-18T21:04:26.440Z,111.72
2018-12-18T21:06:55.675Z,125.42
2018-12-18T21:09:24.069Z,116.00
2018-12-18T21:11:53.048Z,117.80
2018-12-18T21:14:21.787Z,109.25
2018-12-18T21:16:50.447Z,112.32
2018-12-18T21:19:19.293Z,112.10
2018-12-18T21:21:48.069Z,115.42
2018-12-18T21:24:16.447Z,109.72
2018-12-18T21:26:45.126Z,114.65
2018-12-18T21:29:13.493Z,115.97
2018-12-18T21:31:42.196Z,112.05
2018-12-18T21:34:10.630Z,106.92
2018-12-18T21:36:39.333Z,108.63
2018-12-18T21:39:09.224Z,110.48
2018-12-18T21:41:37.936Z,107.58
2018-12-18T21:44:06.309Z,109.10
2018-12-18T21:46:35.641Z,106.80
2018-12-18T21:49:04.500Z,113.72
2018-12-18T21:51:33.039Z,113.22
2018-12-18T21:54:01.962Z,108.65
2018-12-18T21:56:30.378Z,109.42
2018-12-18T21:58:59.784Z,107.25
2018-12-18T22:01:28.503Z,107.32
2018-12-18T22:03:57.690Z,106.70
2018-12-18T22:06:26.039Z,110.08
2018-12-18T22:08:54.718Z,112.00
2018-12-18T22:11:23.752Z,106.25
2018-12-18T22:13:52.489Z,111.17
2018-12-18T22:16:21.362Z,107.47
2018-12-18T22:18:50.133Z,113.60
2018-12-18T22:21:19.413Z,106.07
2018-12-18T22:23:48.153Z,111.52
2018-12-18T22:26:16.934Z,108.87
2018-12-18T22:28:45.820Z,109.72
2018-12-18T22:31:14.945Z,109.92
2018-12-18T22:33:43.598Z,108.40
2018-12-18T22:36:11.984Z,107.67
2018-12-18T22:38:43.765Z,113.12
2018-12-18T22:41:12.047Z,107.95
2018-12-18T22:43:40.634Z,104.58
2018-12-18T22:46:09.358Z,112.85
2018-12-18T22:48:38.361Z,110.65
2018-12-18T22:51:06.849Z,110.10
2018-12-18T22:53:35.876Z,112.85
2018-12-18T22:56:04.661Z,113.32
2018-12-18T22:58:33.009Z,112.77
2018-12-18T23:01:02.166Z,105.07
2018-12-18T23:03:30.551Z,107.40
2018-12-18T23:06:00.138Z,110.68
2018-12-18T23:08:29.842Z,110.03
2018-12-18T23:10:59.527Z,116.75
2018-12-18T23:13:27.893Z,110.70
2018-12-18T23:15:56.841Z,106.90
2018-12-18T23:18:25.211Z,106.03
2018-12-18T23:20:53.594Z,104.35
2018-12-18T23:23:23.129Z,100.00
2018-12-18T23:25:52.068Z,100.67
2018-12-18T23:28:20.840Z,102.25
2018-12-18T23:30:49.496Z,98.75
2018-12-18T23:33:18.448Z,100.20
2018-12-18T23:35:47.095Z,100.20
2018-12-18T23:38:15.741Z,104.75
2018-12-18T23:40:44.222Z,101.80
2018-12-18T23:43:13.298Z,107.83
2018-12-18T23:45:41.943Z,98.67
2018-12-18T23:48:11.422Z,100.75
2018-12-18T23:50:40.082Z,103.97
2018-12-18T23:53:08.439Z,106.50
2018-12-18T23:55:37.227Z,101.20
2018-12-18T23:58:05.586Z,103.83
